sensor_id;sensor_type;location;lat;lon;timestamp;temperature;humidity
7143;DHT22;3613;48.902;9.204;2023-07-13T00:02:16;19.10;1.00
7143;DHT22;3613;48.902;9.204;2023-07-13T00:09:40;18.90;1.00
7143;DHT22;3613;48.902;9.204;2023-07-13T00:12:28;18.80;1.00
7143;DHT22;3613;48.902;9.204;2023-07-13T00:14:57;18.70;1.00
7143;DHT22;3613;48.902;9.204;2023-07-13T00:19:49;18.70;1.00
7143;DHT22;3613;48.902;9.204;2023-07-13T00:22:17;18.70;1.00
7143;DHT22;3613;48.902;9.204;2023-07-13T00:24:44;18.60;1.00
7143;DHT22;3613;48.902;9.204;2023-07-13T00:29:36;18.60;99.90
7143;DHT22;3613;48.902;9.204;2023-07-13T00:32:06;18.70;99.90
7143;DHT22;3613;48.902;9.204;2023-07-13T00:34:35;18.60;1.00
7143;DHT22;3613;48.902;9.204;2023-07-13T00:37:00;18.60;1.00
7143;DHT22;3613;48.902;9.204;2023-07-13T00:39:26;18.60;99.90
7143;DHT22;3613;48.902;9.204;2023-07-13T00:44:23;18.40;99.90
7143;DHT22;3613;48.902;9.204;2023-07-13T00:46:49;18.40;1.00
7143;DHT22;3613;48.902;9.204;2023-07-13T00:49:17;18.30;99.90
7143;DHT22;3613;48.902;9.204;2023-07-13T00:51:53;18.30;5.90
7143;DHT22;3613;48.902;9.204;2023-07-13T00:54:32;18.20;1.00
7143;DHT22;3613;48.902;9.204;2023-07-13T00:57:00;18.10;1.00
7143;DHT22;3613;48.902;9.204;2023-07-13T01:01:54;18.20;1.00
7143;DHT22;3613;48.902;9.204;2023-07-13T01:06:46;18.00;99.90
7143;DHT22;3613;48.902;9.204;2023-07-13T01:09:13;17.80;99.90
7143;DHT22;3613;48.902;9.204;2023-07-13T01:11:39;17.70;1.00
7143;DHT22;3613;48.902;9.204;2023-07-13T01:14:06;17.70;1.00
7143;DHT22;3613;48.902;9.204;2023-07-13T01:16:34;17.70;99.90
7143;DHT22;3613;48.902;9.204;2023-07-13T01:19:01;17.80;1.00
7143;DHT22;3613;48.902;9.204;2023-07-13T01:21:32;17.70;1.00
7143;DHT22;3613;48.902;9.204;2023-07-13T01:23:58;17.60;55.10
7143;DHT22;3613;48.902;9.204;2023-07-13T01:26:26;17.50;1.00
7143;DHT22;3613;48.902;9.204;2023-07-13T01:33:44;17.40;1.00
7143;DHT22;3613;48.902;9.204;2023-07-13T01:36:11;17.30;99.90
7143;DHT22;3613;48.902;9.204;2023-07-13T01:38:37;17.20;1.00
7143;DHT22;3613;48.902;9.204;2023-07-13T01:41:02;17.10;1.00
7143;DHT22;3613;48.902;9.204;2023-07-13T01:48:23;16.80;1.00
7143;DHT22;3613;48.902;9.204;2023-07-13T01:55:44;16.70;1.00
7143;DHT22;3613;48.902;9.204;2023-07-13T02:03:01;16.50;1.00
7143;DHT22;3613;48.902;9.204;2023-07-13T02:07:58;16.30;1.00
7143;DHT22;3613;48.902;9.204;2023-07-13T02:10:24;16.30;99.90
7143;DHT22;3613;48.902;9.204;2023-07-13T02:15:17;16.30;1.00
7143;DHT22;3613;48.902;9.204;2023-07-13T02:17:43;16.40;1.00
7143;DHT22;3613;48.902;9.204;2023-07-13T02:20:13;16.40;1.00
7143;DHT22;3613;48.902;9.204;2023-07-13T02:22:41;16.30;99.90
7143;DHT22;3613;48.902;9.204;2023-07-13T02:27:32;16.30;1.00
7143;DHT22;3613;48.902;9.204;2023-07-13T02:30:00;16.20;99.90
7143;DHT22;3613;48.902;9.204;2023-07-13T02:32:26;16.10;99.90
7143;DHT22;3613;48.902;9.204;2023-07-13T02:44:41;15.70;1.00
7143;DHT22;3613;48.902;9.204;2023-07-13T02:47:07;15.60;1.00
7143;DHT22;3613;48.902;9.204;2023-07-13T02:56:55;15.80;1.00
7143;DHT22;3613;48.902;9.204;2023-07-13T03:01:49;15.70;91.60
7143;DHT22;3613;48.902;9.204;2023-07-13T03:06:45;15.80;99.90
7143;DHT22;3613;48.902;9.204;2023-07-13T03:11:38;15.70;1.00
7143;DHT22;3613;48.902;9.204;2023-07-13T03:14:07;15.70;1.00
7143;DHT22;3613;48.902;9.204;2023-07-13T03:18:59;15.90;1.00
7143;DHT22;3613;48.902;9.204;2023-07-13T03:21:25;15.90;1.00
7143;DHT22;3613;48.902;9.204;2023-07-13T03:26:19;16.00;1.00
7143;DHT22;3613;48.902;9.204;2023-07-13T03:28:45;16.10;99.90
7143;DHT22;3613;48.902;9.204;2023-07-13T03:31:17;16.10;1.00
7143;DHT22;3613;48.902;9.204;2023-07-13T03:33:46;16.10;1.00
7143;DHT22;3613;48.902;9.204;2023-07-13T03:36:19;16.20;1.00
7143;DHT22;3613;48.902;9.204;2023-07-13T03:38:53;16.40;1.00
7143;DHT22;3613;48.902;9.204;2023-07-13T03:48:46;16.90;1.00
7143;DHT22;3613;48.902;9.204;2023-07-13T03:51:14;17.20;1.00
7143;DHT22;3613;48.902;9.204;2023-07-13T03:53:43;17.30;1.00
7143;DHT22;3613;48.902;9.204;2023-07-13T03:56:12;17.60;99.90
7143;DHT22;3613;48.902;9.204;2023-07-13T03:58:41;17.80;1.00
7143;DHT22;3613;48.902;9.204;2023-07-13T04:01:11;18.40;99.90
7143;DHT22;3613;48.902;9.204;2023-07-13T04:03:40;18.60;99.90
7143;DHT22;3613;48.902;9.204;2023-07-13T04:06:18;18.50;1.00
7143;DHT22;3613;48.902;9.204;2023-07-13T04:08:49;18.40;1.00
7143;DHT22;3613;48.902;9.204;2023-07-13T04:11:16;18.30;62.90
7143;DHT22;3613;48.902;9.204;2023-07-13T04:16:10;17.80;99.90
7143;DHT22;3613;48.902;9.204;2023-07-13T04:18:38;17.70;99.90
7143;DHT22;3613;48.902;9.204;2023-07-13T04:21:03;17.70;1.00
7143;DHT22;3613;48.902;9.204;2023-07-13T04:25:55;17.50;1.00
7143;DHT22;3613;48.902;9.204;2023-07-13T04:28:25;17.60;1.00
7143;DHT22;3613;48.902;9.204;2023-07-13T04:30:54;17.50;1.00
7143;DHT22;3613;48.902;9.204;2023-07-13T04:33:20;17.50;99.90
7143;DHT22;3613;48.902;9.204;2023-07-13T04:38:13;17.40;99.90
7143;DHT22;3613;48.902;9.204;2023-07-13T04:40:42;17.40;1.00
7143;DHT22;3613;48.902;9.204;2023-07-13T04:43:09;17.30;1.00
7143;DHT22;3613;48.902;9.204;2023-07-13T04:50:32;17.10;99.90
7143;DHT22;3613;48.902;9.204;2023-07-13T04:52:58;17.10;1.00
7143;DHT22;3613;48.902;9.204;2023-07-13T04:55:24;17.10;99.90
7143;DHT22;3613;48.902;9.204;2023-07-13T05:00:16;17.10;99.90
7143;DHT22;3613;48.902;9.204;2023-07-13T05:02:44;17.20;99.90
7143;DHT22;3613;48.902;9.204;2023-07-13T05:10:02;18.40;54.90
7143;DHT22;3613;48.902;9.204;2023-07-13T05:12:29;19.60;99.90
7143;DHT22;3613;48.902;9.204;2023-07-13T05:14:58;21.80;1.00
7143;DHT22;3613;48.902;9.204;2023-07-13T05:17:24;23.70;1.00
7143;DHT22;3613;48.902;9.204;2023-07-13T05:24:42;23.70;99.90
7143;DHT22;3613;48.902;9.204;2023-07-13T05:29:33;22.70;99.90
7143;DHT22;3613;48.902;9.204;2023-07-13T05:34:25;22.00;1.00
7143;DHT22;3613;48.902;9.204;2023-07-13T05:41:48;21.30;1.00
7143;DHT22;3613;48.902;9.204;2023-07-13T05:46:40;21.20;1.00
7143;DHT22;3613;48.902;9.204;2023-07-13T05:49:07;21.80;1.00
7143;DHT22;3613;48.902;9.204;2023-07-13T05:51:33;22.20;1.00
7143;DHT22;3613;48.902;9.204;2023-07-13T05:58:54;22.20;99.90
7143;DHT22;3613;48.902;9.204;2023-07-13T06:03:50;22.30;99.90
7143;DHT22;3613;48.902;9.204;2023-07-13T06:06:20;22.60;99.90
7143;DHT22;3613;48.902;9.204;2023-07-13T06:08:48;24.00;99.90
7143;DHT22;3613;48.902;9.204;2023-07-13T06:11:19;26.00;1.00
7143;DHT22;3613;48.902;9.204;2023-07-13T06:16:13;27.70;1.00
7143;DHT22;3613;48.902;9.204;2023-07-13T06:18:39;28.20;1.00
7143;DHT22;3613;48.902;9.204;2023-07-13T06:21:10;29.00;1.00
7143;DHT22;3613;48.902;9.204;2023-07-13T06:23:41;28.30;1.00
7143;DHT22;3613;48.902;9.204;2023-07-13T06:26:08;27.70;1.00
7143;DHT22;3613;48.902;9.204;2023-07-13T06:28:35;27.50;1.00
7143;DHT22;3613;48.902;9.204;2023-07-13T06:31:01;27.90;1.00
7143;DHT22;3613;48.902;9.204;2023-07-13T06:33:29;27.90;1.00
7143;DHT22;3613;48.902;9.204;2023-07-13T06:35:55;27.80;1.00
7143;DHT22;3613;48.902;9.204;2023-07-13T06:38:21;27.90;1.00
7143;DHT22;3613;48.902;9.204;2023-07-13T06:40:46;29.20;1.00
7143;DHT22;3613;48.902;9.204;2023-07-13T06:45:44;32.80;99.90
7143;DHT22;3613;48.902;9.204;2023-07-13T06:48:19;33.30;99.90
7143;DHT22;3613;48.902;9.204;2023-07-13T06:50:46;33.80;99.90
7143;DHT22;3613;48.902;9.204;2023-07-13T06:53:12;34.30;99.90
7143;DHT22;3613;48.902;9.204;2023-07-13T06:55:39;34.00;99.90
7143;DHT22;3613;48.902;9.204;2023-07-13T07:00:31;32.80;99.90
7143;DHT22;3613;48.902;9.204;2023-07-13T07:02:59;32.40;99.90
7143;DHT22;3613;48.902;9.204;2023-07-13T07:05:24;31.80;99.90
7143;DHT22;3613;48.902;9.204;2023-07-13T07:07:51;30.90;99.90
7143;DHT22;3613;48.902;9.204;2023-07-13T07:12:43;29.00;99.90
7143;DHT22;3613;48.902;9.204;2023-07-13T07:15:09;29.40;1.00
7143;DHT22;3613;48.902;9.204;2023-07-13T07:17:37;30.60;99.90
7143;DHT22;3613;48.902;9.204;2023-07-13T07:20:03;31.90;1.00
7143;DHT22;3613;48.902;9.204;2023-07-13T07:22:32;32.90;99.90
7143;DHT22;3613;48.902;9.204;2023-07-13T07:25:00;33.40;99.90
7143;DHT22;3613;48.902;9.204;2023-07-13T07:27:30;34.20;1.00
7143;DHT22;3613;48.902;9.204;2023-07-13T07:32:28;35.20;99.90
7143;DHT22;3613;48.902;9.204;2023-07-13T07:34:57;35.10;99.90
7143;DHT22;3613;48.902;9.204;2023-07-13T07:39:49;34.60;99.90
7143;DHT22;3613;48.902;9.204;2023-07-13T07:44:41;35.40;99.90
7143;DHT22;3613;48.902;9.204;2023-07-13T07:47:07;35.00;99.90
7143;DHT22;3613;48.902;9.204;2023-07-13T07:49:33;34.70;99.90
7143;DHT22;3613;48.902;9.204;2023-07-13T07:54:27;34.40;99.90
7143;DHT22;3613;48.902;9.204;2023-07-13T07:59:21;34.20;1.00
7143;DHT22;3613;48.902;9.204;2023-07-13T08:31:07;33.70;99.90
7143;DHT22;3613;48.902;9.204;2023-07-13T08:33:34;34.00;99.90
7143;DHT22;3613;48.902;9.204;2023-07-13T08:38:30;34.10;99.90
7143;DHT22;3613;48.902;9.204;2023-07-13T08:40:56;34.20;99.90
7143;DHT22;3613;48.902;9.204;2023-07-13T08:43:30;34.70;99.90
7143;DHT22;3613;48.902;9.204;2023-07-13T08:46:09;34.40;1.00
7143;DHT22;3613;48.902;9.204;2023-07-13T08:51:52;33.80;99.90
7143;DHT22;3613;48.902;9.204;2023-07-13T08:56:49;34.30;99.90
7143;DHT22;3613;48.902;9.204;2023-07-13T08:59:20;33.90;99.90
7143;DHT22;3613;48.902;9.204;2023-07-13T09:04:36;33.00;99.90
7143;DHT22;3613;48.902;9.204;2023-07-13T09:07:17;33.10;99.90
7143;DHT22;3613;48.902;9.204;2023-07-13T09:10:02;32.60;99.90
7143;DHT22;3613;48.902;9.204;2023-07-13T09:15:31;33.60;99.90
7143;DHT22;3613;48.902;9.204;2023-07-13T09:18:08;34.00;99.90
7143;DHT22;3613;48.902;9.204;2023-07-13T09:20:40;34.50;99.90
7143;DHT22;3613;48.902;9.204;2023-07-13T09:23:14;34.90;99.90
7143;DHT22;3613;48.902;9.204;2023-07-13T09:25:41;34.50;99.90
7143;DHT22;3613;48.902;9.204;2023-07-13T09:28:10;33.60;1.00
7143;DHT22;3613;48.902;9.204;2023-07-13T09:30:49;33.00;1.00
7143;DHT22;3613;48.902;9.204;2023-07-13T09:33:19;32.40;99.90
7143;DHT22;3613;48.902;9.204;2023-07-13T09:35:44;32.40;1.00
7143;DHT22;3613;48.902;9.204;2023-07-13T09:38:13;32.30;1.00
7143;DHT22;3613;48.902;9.204;2023-07-13T09:43:26;32.80;99.90
7143;DHT22;3613;48.902;9.204;2023-07-13T09:48:20;32.60;99.90
7143;DHT22;3613;48.902;9.204;2023-07-13T09:53:21;32.60;1.00
7143;DHT22;3613;48.902;9.204;2023-07-13T09:55:50;32.20;1.00
7143;DHT22;3613;48.902;9.204;2023-07-13T09:58:21;31.60;1.00
7143;DHT22;3613;48.902;9.204;2023-07-13T10:01:01;32.00;1.00
7143;DHT22;3613;48.902;9.204;2023-07-13T10:03:34;32.00;1.00
7143;DHT22;3613;48.902;9.204;2023-07-13T10:06:17;32.00;1.00
7143;DHT22;3613;48.902;9.204;2023-07-13T10:08:48;32.10;1.00
7143;DHT22;3613;48.902;9.204;2023-07-13T10:13:52;32.40;1.00
7143;DHT22;3613;48.902;9.204;2023-07-13T10:16:19;32.40;1.00
7143;DHT22;3613;48.902;9.204;2023-07-13T10:18:48;32.20;1.00
7143;DHT22;3613;48.902;9.204;2023-07-13T10:21:19;32.30;1.00
7143;DHT22;3613;48.902;9.204;2023-07-13T10:23:53;32.40;1.00
7143;DHT22;3613;48.902;9.204;2023-07-13T10:26:27;32.00;1.00
7143;DHT22;3613;48.902;9.204;2023-07-13T10:28:57;32.10;1.00
7143;DHT22;3613;48.902;9.204;2023-07-13T10:31:24;32.00;1.00
7143;DHT22;3613;48.902;9.204;2023-07-13T10:33:53;31.60;1.00
7143;DHT22;3613;48.902;9.204;2023-07-13T10:36:32;31.40;1.00
7143;DHT22;3613;48.902;9.204;2023-07-13T10:39:02;30.90;1.00
7143;DHT22;3613;48.902;9.204;2023-07-13T10:41:39;30.70;1.00
7143;DHT22;3613;48.902;9.204;2023-07-13T10:44:18;30.20;1.00
7143;DHT22;3613;48.902;9.204;2023-07-13T10:46:46;30.10;1.00
7143;DHT22;3613;48.902;9.204;2023-07-13T10:49:16;30.50;1.00
7143;DHT22;3613;48.902;9.204;2023-07-13T10:51:42;30.40;1.00
7143;DHT22;3613;48.902;9.204;2023-07-13T10:57:19;30.90;1.00
7143;DHT22;3613;48.902;9.204;2023-07-13T11:00:15;30.70;1.00
7143;DHT22;3613;48.902;9.204;2023-07-13T11:02:56;30.90;1.00
7143;DHT22;3613;48.902;9.204;2023-07-13T11:05:29;30.90;1.00
7143;DHT22;3613;48.902;9.204;2023-07-13T11:10:55;31.70;1.00
7143;DHT22;3613;48.902;9.204;2023-07-13T11:18:52;31.90;1.00
7143;DHT22;3613;48.902;9.204;2023-07-13T11:21:25;32.20;1.00
7143;DHT22;3613;48.902;9.204;2023-07-13T11:23:54;32.90;1.00
7143;DHT22;3613;48.902;9.204;2023-07-13T11:26:39;32.80;1.00
7143;DHT22;3613;48.902;9.204;2023-07-13T11:34:13;33.00;1.00
7143;DHT22;3613;48.902;9.204;2023-07-13T11:36:43;33.10;1.00
7143;DHT22;3613;48.902;9.204;2023-07-13T11:39:29;33.20;1.00
7143;DHT22;3613;48.902;9.204;2023-07-13T11:42:02;33.90;1.00
7143;DHT22;3613;48.902;9.204;2023-07-13T11:44:30;33.60;1.00
7143;DHT22;3613;48.902;9.204;2023-07-13T11:46:58;33.40;1.00
7143;DHT22;3613;48.902;9.204;2023-07-13T11:49:31;33.40;1.00
7143;DHT22;3613;48.902;9.204;2023-07-13T11:51:58;33.30;1.00
7143;DHT22;3613;48.902;9.204;2023-07-13T11:54:32;32.70;1.00
7143;DHT22;3613;48.902;9.204;2023-07-13T11:57:06;31.50;1.00
7143;DHT22;3613;48.902;9.204;2023-07-13T11:59:42;30.90;1.00
7143;DHT22;3613;48.902;9.204;2023-07-13T12:02:25;31.10;1.00
7143;DHT22;3613;48.902;9.204;2023-07-13T12:04:51;31.30;1.00
7143;DHT22;3613;48.902;9.204;2023-07-13T12:07:19;31.10;1.00
7143;DHT22;3613;48.902;9.204;2023-07-13T12:09:47;31.30;1.00
7143;DHT22;3613;48.902;9.204;2023-07-13T12:12:22;32.40;1.00
7143;DHT22;3613;48.902;9.204;2023-07-13T12:14:52;33.70;1.00
7143;DHT22;3613;48.902;9.204;2023-07-13T12:17:24;34.70;1.00
7143;DHT22;3613;48.902;9.204;2023-07-13T12:19:52;35.00;1.00
7143;DHT22;3613;48.902;9.204;2023-07-13T12:22:19;35.40;1.00
7143;DHT22;3613;48.902;9.204;2023-07-13T12:27:37;34.30;1.00
7143;DHT22;3613;48.902;9.204;2023-07-13T12:30:05;32.20;1.00
7143;DHT22;3613;48.902;9.204;2023-07-13T12:35:15;33.00;1.00
7143;DHT22;3613;48.902;9.204;2023-07-13T12:37:45;33.40;1.00
7143;DHT22;3613;48.902;9.204;2023-07-13T12:40:19;33.40;1.00
7143;DHT22;3613;48.902;9.204;2023-07-13T12:42:48;33.60;1.00
7143;DHT22;3613;48.902;9.204;2023-07-13T12:45:27;34.70;1.00
7143;DHT22;3613;48.902;9.204;2023-07-13T12:47:57;35.70;1.00
7143;DHT22;3613;48.902;9.204;2023-07-13T12:50:34;36.30;1.00
7143;DHT22;3613;48.902;9.204;2023-07-13T12:53:04;36.80;1.00
7143;DHT22;3613;48.902;9.204;2023-07-13T12:55:47;37.00;1.00
7143;DHT22;3613;48.902;9.204;2023-07-13T13:00:51;36.00;1.00
7143;DHT22;3613;48.902;9.204;2023-07-13T13:03:28;35.80;1.00
7143;DHT22;3613;48.902;9.204;2023-07-13T13:08:52;34.40;1.00
7143;DHT22;3613;48.902;9.204;2023-07-13T13:11:19;34.00;1.00
7143;DHT22;3613;48.902;9.204;2023-07-13T13:13:46;33.90;1.00
7143;DHT22;3613;48.902;9.204;2023-07-13T13:16:20;33.50;1.00
7143;DHT22;3613;48.902;9.204;2023-07-13T13:18:49;33.40;1.00
7143;DHT22;3613;48.902;9.204;2023-07-13T13:21:16;32.10;1.00
7143;DHT22;3613;48.902;9.204;2023-07-13T13:23:42;30.70;1.00
7143;DHT22;3613;48.902;9.204;2023-07-13T13:26:12;30.50;1.00
7143;DHT22;3613;48.902;9.204;2023-07-13T13:28:42;31.10;1.00
7143;DHT22;3613;48.902;9.204;2023-07-13T13:31:09;31.90;1.00
7143;DHT22;3613;48.902;9.204;2023-07-13T13:33:39;31.90;1.00
7143;DHT22;3613;48.902;9.204;2023-07-13T13:38:42;31.20;1.00
7143;DHT22;3613;48.902;9.204;2023-07-13T13:41:10;30.40;1.00
7143;DHT22;3613;48.902;9.204;2023-07-13T13:46:14;30.00;1.00
7143;DHT22;3613;48.902;9.204;2023-07-13T13:51:18;29.70;1.00
7143;DHT22;3613;48.902;9.204;2023-07-13T13:53:47;29.70;1.00
7143;DHT22;3613;48.902;9.204;2023-07-13T13:56:14;29.60;1.00
7143;DHT22;3613;48.902;9.204;2023-07-13T13:58:41;29.40;1.00
7143;DHT22;3613;48.902;9.204;2023-07-13T14:01:17;29.10;1.00
7143;DHT22;3613;48.902;9.204;2023-07-13T14:06:14;28.60;1.00
7143;DHT22;3613;48.902;9.204;2023-07-13T14:08:40;28.40;1.00
7143;DHT22;3613;48.902;9.204;2023-07-13T14:11:12;28.40;1.00
7143;DHT22;3613;48.902;9.204;2023-07-13T14:13:42;28.20;1.00
7143;DHT22;3613;48.902;9.204;2023-07-13T14:16:15;28.20;1.00
7143;DHT22;3613;48.902;9.204;2023-07-13T14:21:18;28.10;1.00
7143;DHT22;3613;48.902;9.204;2023-07-13T14:23:45;28.10;1.00
7143;DHT22;3613;48.902;9.204;2023-07-13T14:26:17;28.00;1.00
7143;DHT22;3613;48.902;9.204;2023-07-13T14:28:55;27.70;1.00
7143;DHT22;3613;48.902;9.204;2023-07-13T14:31:23;27.60;1.00
7143;DHT22;3613;48.902;9.204;2023-07-13T14:36:31;27.70;1.00
7143;DHT22;3613;48.902;9.204;2023-07-13T14:39:00;27.70;1.00
7143;DHT22;3613;48.902;9.204;2023-07-13T14:41:27;27.80;1.00
7143;DHT22;3613;48.902;9.204;2023-07-13T14:46:31;28.00;1.00
7143;DHT22;3613;48.902;9.204;2023-07-13T14:49:05;28.10;1.00
7143;DHT22;3613;48.902;9.204;2023-07-13T14:51:34;28.10;1.00
7143;DHT22;3613;48.902;9.204;2023-07-13T14:54:05;27.90;1.00
7143;DHT22;3613;48.902;9.204;2023-07-13T14:59:00;27.60;1.00
7143;DHT22;3613;48.902;9.204;2023-07-13T15:03:52;27.50;1.00
7143;DHT22;3613;48.902;9.204;2023-07-13T15:06:19;27.50;1.00
7143;DHT22;3613;48.902;9.204;2023-07-13T15:08:45;27.60;1.00
7143;DHT22;3613;48.902;9.204;2023-07-13T15:11:11;27.50;1.00
7143;DHT22;3613;48.902;9.204;2023-07-13T15:13:42;27.50;1.00
7143;DHT22;3613;48.902;9.204;2023-07-13T15:16:21;27.30;1.00
7143;DHT22;3613;48.902;9.204;2023-07-13T15:18:50;27.20;1.00
7143;DHT22;3613;48.902;9.204;2023-07-13T15:21:21;27.10;1.00
7143;DHT22;3613;48.902;9.204;2023-07-13T15:23:48;27.10;1.00
7143;DHT22;3613;48.902;9.204;2023-07-13T15:26:15;27.20;1.00
7143;DHT22;3613;48.902;9.204;2023-07-13T15:28:42;27.20;1.00
7143;DHT22;3613;48.902;9.204;2023-07-13T15:31:25;27.20;1.00
7143;DHT22;3613;48.902;9.204;2023-07-13T15:33:55;27.10;1.00
7143;DHT22;3613;48.902;9.204;2023-07-13T15:36:24;27.20;1.00
7143;DHT22;3613;48.902;9.204;2023-07-13T15:38:55;26.80;1.00
7143;DHT22;3613;48.902;9.204;2023-07-13T15:41:24;26.70;1.00
7143;DHT22;3613;48.902;9.204;2023-07-13T15:43:51;26.60;1.00
7143;DHT22;3613;48.902;9.204;2023-07-13T15:46:21;26.60;1.00
7143;DHT22;3613;48.902;9.204;2023-07-13T15:48:48;26.70;1.00
7143;DHT22;3613;48.902;9.204;2023-07-13T15:51:25;26.70;1.00
7143;DHT22;3613;48.902;9.204;2023-07-13T15:53:59;26.80;1.00
7143;DHT22;3613;48.902;9.204;2023-07-13T15:58:56;26.70;1.00
7143;DHT22;3613;48.902;9.204;2023-07-13T16:01:23;26.70;1.00
7143;DHT22;3613;48.902;9.204;2023-07-13T16:03:51;26.60;1.00
7143;DHT22;3613;48.902;9.204;2023-07-13T16:06:27;26.50;1.00
7143;DHT22;3613;48.902;9.204;2023-07-13T16:08:53;26.50;1.00
7143;DHT22;3613;48.902;9.204;2023-07-13T16:11:27;26.30;1.00
7143;DHT22;3613;48.902;9.204;2023-07-13T16:16:22;26.00;1.00
7143;DHT22;3613;48.902;9.204;2023-07-13T16:18:52;26.10;1.00
7143;DHT22;3613;48.902;9.204;2023-07-13T16:26:38;25.90;1.00
7143;DHT22;3613;48.902;9.204;2023-07-13T16:31:43;26.00;1.00
7143;DHT22;3613;48.902;9.204;2023-07-13T16:39:12;26.00;1.00
7143;DHT22;3613;48.902;9.204;2023-07-13T16:41:40;25.90;1.00
7143;DHT22;3613;48.902;9.204;2023-07-13T16:44:11;25.90;1.00
7143;DHT22;3613;48.902;9.204;2023-07-13T16:51:52;25.80;1.00
7143;DHT22;3613;48.902;9.204;2023-07-13T16:54:24;25.60;1.00
7143;DHT22;3613;48.902;9.204;2023-07-13T16:56:50;25.70;1.00
7143;DHT22;3613;48.902;9.204;2023-07-13T16:59:20;25.60;1.00
7143;DHT22;3613;48.902;9.204;2023-07-13T17:04:16;25.70;1.00
7143;DHT22;3613;48.902;9.204;2023-07-13T17:06:50;25.70;1.00
7143;DHT22;3613;48.902;9.204;2023-07-13T17:11:49;25.60;1.00
7143;DHT22;3613;48.902;9.204;2023-07-13T17:14:17;25.40;1.00
7143;DHT22;3613;48.902;9.204;2023-07-13T17:16:53;25.20;1.00
7143;DHT22;3613;48.902;9.204;2023-07-13T17:19:27;25.10;1.00
7143;DHT22;3613;48.902;9.204;2023-07-13T17:24:23;25.00;1.00
7143;DHT22;3613;48.902;9.204;2023-07-13T17:29:16;24.90;1.00
7143;DHT22;3613;48.902;9.204;2023-07-13T17:34:11;25.00;1.00
7143;DHT22;3613;48.902;9.204;2023-07-13T17:39:19;24.90;1.00
7143;DHT22;3613;48.902;9.204;2023-07-13T17:44:17;24.70;1.00
7143;DHT22;3613;48.902;9.204;2023-07-13T17:46:45;24.60;1.00
7143;DHT22;3613;48.902;9.204;2023-07-13T17:49:15;24.60;1.00
7143;DHT22;3613;48.902;9.204;2023-07-13T17:54:15;24.30;1.00
7143;DHT22;3613;48.902;9.204;2023-07-13T17:56:43;24.30;1.00
7143;DHT22;3613;48.902;9.204;2023-07-13T17:59:08;24.30;1.00
7143;DHT22;3613;48.902;9.204;2023-07-13T18:01:35;24.20;1.00
7143;DHT22;3613;48.902;9.204;2023-07-13T18:04:11;24.10;1.00
7143;DHT22;3613;48.902;9.204;2023-07-13T18:06:40;24.10;1.00
7143;DHT22;3613;48.902;9.204;2023-07-13T18:09:23;24.00;1.00
7143;DHT22;3613;48.902;9.204;2023-07-13T18:11:52;23.90;1.00
7143;DHT22;3613;48.902;9.204;2023-07-13T18:14:19;23.80;1.00
7143;DHT22;3613;48.902;9.204;2023-07-13T18:16:52;23.80;1.00
7143;DHT22;3613;48.902;9.204;2023-07-13T18:19:39;23.70;1.00
7143;DHT22;3613;48.902;9.204;2023-07-13T18:22:14;23.70;1.00
7143;DHT22;3613;48.902;9.204;2023-07-13T18:29:34;23.50;1.00
7143;DHT22;3613;48.902;9.204;2023-07-13T18:34:33;23.30;1.00
7143;DHT22;3613;48.902;9.204;2023-07-13T18:37:07;23.20;1.00
7143;DHT22;3613;48.902;9.204;2023-07-13T18:49:18;22.60;1.00
7143;DHT22;3613;48.902;9.204;2023-07-13T18:54:13;22.30;1.00
7143;DHT22;3613;48.902;9.204;2023-07-13T19:01:33;21.70;1.00
7143;DHT22;3613;48.902;9.204;2023-07-13T19:06:28;21.70;1.00
7143;DHT22;3613;48.902;9.204;2023-07-13T19:08:54;21.60;1.00
7143;DHT22;3613;48.902;9.204;2023-07-13T19:11:20;21.50;1.00
7143;DHT22;3613;48.902;9.204;2023-07-13T19:23:55;20.90;1.00
7143;DHT22;3613;48.902;9.204;2023-07-13T19:26:28;20.70;1.00
7143;DHT22;3613;48.902;9.204;2023-07-13T19:28:56;20.60;1.00
7143;DHT22;3613;48.902;9.204;2023-07-13T19:31:29;20.50;1.00
7143;DHT22;3613;48.902;9.204;2023-07-13T19:33:59;20.30;1.00
7143;DHT22;3613;48.902;9.204;2023-07-13T19:36:26;20.50;1.00
7143;DHT22;3613;48.902;9.204;2023-07-13T19:38:52;20.20;1.00
7143;DHT22;3613;48.902;9.204;2023-07-13T19:41:23;20.20;1.00
7143;DHT22;3613;48.902;9.204;2023-07-13T19:43:50;20.00;1.00
7143;DHT22;3613;48.902;9.204;2023-07-13T19:46:33;20.10;1.00
7143;DHT22;3613;48.902;9.204;2023-07-13T19:49:05;19.90;1.00
7143;DHT22;3613;48.902;9.204;2023-07-13T19:51:34;19.90;1.00
7143;DHT22;3613;48.902;9.204;2023-07-13T19:54:12;19.90;1.00
7143;DHT22;3613;48.902;9.204;2023-07-13T19:56:41;19.90;1.00
7143;DHT22;3613;48.902;9.204;2023-07-13T19:59:26;19.90;1.00
7143;DHT22;3613;48.902;9.204;2023-07-13T20:01:55;19.80;1.00
7143;DHT22;3613;48.902;9.204;2023-07-13T20:04:25;19.80;1.00
7143;DHT22;3613;48.902;9.204;2023-07-13T20:09:19;19.60;1.00
7143;DHT22;3613;48.902;9.204;2023-07-13T20:11:45;19.60;1.00
7143;DHT22;3613;48.902;9.204;2023-07-13T20:14:21;19.50;1.00
7143;DHT22;3613;48.902;9.204;2023-07-13T20:16:48;19.40;1.00
7143;DHT22;3613;48.902;9.204;2023-07-13T20:21:47;19.30;1.00
7143;DHT22;3613;48.902;9.204;2023-07-13T20:24:18;19.30;1.00
7143;DHT22;3613;48.902;9.204;2023-07-13T20:29:14;19.10;1.00
7143;DHT22;3613;48.902;9.204;2023-07-13T20:31:47;19.10;1.00
7143;DHT22;3613;48.902;9.204;2023-07-13T20:34:19;19.00;1.00
7143;DHT22;3613;48.902;9.204;2023-07-13T20:39:12;18.80;1.00
7143;DHT22;3613;48.902;9.204;2023-07-13T20:44:07;18.80;1.00
7143;DHT22;3613;48.902;9.204;2023-07-13T20:46:35;18.70;1.00
7143;DHT22;3613;48.902;9.204;2023-07-13T20:49:04;18.60;1.00
7143;DHT22;3613;48.902;9.204;2023-07-13T20:53:56;18.50;1.00
7143;DHT22;3613;48.902;9.204;2023-07-13T20:56:25;18.60;1.00
7143;DHT22;3613;48.902;9.204;2023-07-13T20:58:51;18.60;1.00
7143;DHT22;3613;48.902;9.204;2023-07-13T21:06:17;18.70;1.00
7143;DHT22;3613;48.902;9.204;2023-07-13T21:16:24;18.70;1.00
7143;DHT22;3613;48.902;9.204;2023-07-13T21:18:52;18.70;1.00
7143;DHT22;3613;48.902;9.204;2023-07-13T21:21:21;18.60;1.00
7143;DHT22;3613;48.902;9.204;2023-07-13T21:23:48;18.70;1.00
7143;DHT22;3613;48.902;9.204;2023-07-13T21:28:45;18.60;1.00
7143;DHT22;3613;48.902;9.204;2023-07-13T21:31:20;18.60;1.00
7143;DHT22;3613;48.902;9.204;2023-07-13T21:38:42;18.40;1.00
7143;DHT22;3613;48.902;9.204;2023-07-13T21:41:33;18.40;1.00
7143;DHT22;3613;48.902;9.204;2023-07-13T21:43:59;18.30;1.00
7143;DHT22;3613;48.902;9.204;2023-07-13T21:46:28;18.40;1.00
7143;DHT22;3613;48.902;9.204;2023-07-13T21:48:57;18.30;1.00
7143;DHT22;3613;48.902;9.204;2023-07-13T21:51:25;18.20;1.00
7143;DHT22;3613;48.902;9.204;2023-07-13T21:53:52;18.30;1.00
7143;DHT22;3613;48.902;9.204;2023-07-13T21:56:20;18.20;1.00
7143;DHT22;3613;48.902;9.204;2023-07-13T22:01:23;18.30;1.00
7143;DHT22;3613;48.902;9.204;2023-07-13T22:03:54;18.30;1.00
7143;DHT22;3613;48.902;9.204;2023-07-13T22:06:25;18.30;1.00
7143;DHT22;3613;48.902;9.204;2023-07-13T22:08:52;18.30;1.00
7143;DHT22;3613;48.902;9.204;2023-07-13T22:11:20;18.40;1.00
7143;DHT22;3613;48.902;9.204;2023-07-13T22:13:46;18.30;1.00
7143;DHT22;3613;48.902;9.204;2023-07-13T22:16:22;18.40;1.00
7143;DHT22;3613;48.902;9.204;2023-07-13T22:18:52;18.20;1.00
7143;DHT22;3613;48.902;9.204;2023-07-13T22:21:19;18.20;1.00
7143;DHT22;3613;48.902;9.204;2023-07-13T22:23:46;18.20;1.00
7143;DHT22;3613;48.902;9.204;2023-07-13T22:28:55;18.20;1.00
7143;DHT22;3613;48.902;9.204;2023-07-13T22:31:24;18.10;99.90
7143;DHT22;3613;48.902;9.204;2023-07-13T22:33:51;18.10;1.00
7143;DHT22;3613;48.902;9.204;2023-07-13T22:36:17;18.00;99.90
7143;DHT22;3613;48.902;9.204;2023-07-13T22:38:43;18.10;1.00
7143;DHT22;3613;48.902;9.204;2023-07-13T22:41:13;18.00;1.00